createdAt,value
2022-09-23T00:00:06.689Z,57.10
2022-09-23T00:02:35.192Z,56.83
2022-09-23T00:05:03.980Z,56.85
2022-09-23T00:07:32.373Z,56.87
2022-09-23T00:10:02.197Z,56.82
2022-09-23T00:12:30.585Z,56.94
2022-09-23T00:14:59.162Z,57.22
2022-09-23T00:17:27.974Z,57.17
2022-09-23T00:19:56.464Z,56.91
2022-09-23T00:22:25.006Z,57.01
2022-09-23T00:24:53.641Z,56.88
2022-09-23T00:27:23.421Z,57.20
2022-09-23T00:29:51.869Z,57.30
2022-09-23T00:32:20.244Z,57.02
2022-09-23T00:34:49.960Z,57.23
2022-09-23T00:37:18.539Z,57.24
2022-09-23T00:39:47.360Z,57.01
2022-09-23T00:42:18.661Z,57.13
2022-09-23T00:44:50.587Z,56.88
2022-09-23T00:47:23.146Z,57.22
2022-09-23T00:49:57.044Z,57.20
2022-09-23T00:52:25.615Z,57.15
2022-09-23T00:54:55.897Z,57.44
2022-09-23T00:57:25.151Z,57.16
2022-09-23T00:59:55.045Z,57.23
2022-09-23T01:02:23.833Z,57.29
2022-09-23T01:04:52.604Z,57.24
2022-09-23T01:07:21.853Z,57.11
2022-09-23T01:09:50.690Z,57.13
2022-09-23T01:12:30.433Z,57.54
2022-09-23T01:15:09.249Z,57.20
2022-09-23T01:17:41.416Z,57.24
2022-09-23T01:20:32.963Z,57.54
2022-09-23T01:23:14.985Z,57.18
2022-09-23T01:25:56.315Z,57.31
2022-09-23T01:28:45.407Z,57.62
2022-09-23T01:31:18.711Z,57.41
2022-09-23T01:33:51.230Z,57.52
2022-09-23T01:36:23.713Z,57.47
2022-09-23T01:38:58.387Z,57.63
2022-09-23T01:41:35.148Z,57.74
2022-09-23T01:44:07.060Z,57.74
2022-09-23T01:46:41.164Z,57.77
2022-09-23T01:49:12.903Z,57.70
2022-09-23T01:51:43.887Z,57.45
2022-09-23T01:54:15.899Z,57.58
2022-09-23T01:56:48.468Z,57.32
2022-09-23T01:59:21.683Z,57.51
2022-09-23T02:01:56.624Z,57.63
2022-09-23T02:04:30.995Z,57.33
2022-09-23T02:07:02.139Z,57.39
2022-09-23T02:09:37.241Z,57.43
2022-09-23T02:12:09.642Z,57.57
2022-09-23T02:14:41.332Z,57.20
2022-09-23T02:17:13.114Z,57.34
2022-09-23T02:19:44.755Z,57.84
2022-09-23T02:22:16.987Z,57.24
2022-09-23T02:24:45.888Z,57.46
2022-09-23T02:27:21.536Z,57.72
2022-09-23T02:29:55.191Z,57.50
2022-09-23T02:32:32.067Z,57.63
2022-09-23T02:35:04.262Z,57.67
2022-09-23T02:37:40.535Z,57.76
2022-09-23T02:40:14.850Z,57.86
2022-09-23T02:42:50.014Z,57.59
2022-09-23T02:45:18.619Z,57.95
2022-09-23T02:47:52.512Z,57.80
2022-09-23T02:50:22.614Z,57.79
2022-09-23T02:52:51.304Z,57.87
2022-09-23T02:55:20.291Z,57.84
2022-09-23T02:57:48.748Z,57.82
2022-09-23T03:00:17.856Z,57.98
2022-09-23T03:03:01.270Z,58.02
2022-09-23T03:05:31.632Z,57.84
2022-09-23T03:08:13.610Z,58.10
2022-09-23T03:10:53.058Z,58.33
2022-09-23T03:13:31.073Z,58.04
2022-09-23T03:16:06.371Z,57.91
2022-09-23T03:18:39.591Z,57.72
2022-09-23T03:21:10.076Z,58.09
2022-09-23T03:23:41.054Z,58.19
2022-09-23T03:26:12.913Z,58.28
2022-09-23T03:28:43.833Z,57.83
2022-09-23T03:31:13.103Z,57.96
2022-09-23T03:33:46.777Z,58.20
2022-09-23T03:36:35.641Z,58.30
2022-09-23T03:39:07.043Z,58.48
2022-09-23T03:41:39.727Z,58.17
2022-09-23T03:44:09.245Z,58.50
2022-09-23T03:46:37.746Z,57.94
2022-09-23T03:49:11.438Z,58.54
2022-09-23T03:51:44.416Z,58.25
2022-09-23T03:54:13.242Z,57.98
2022-09-23T03:56:41.701Z,58.21
2022-09-23T03:59:10.106Z,58.30
2022-09-23T04:01:38.637Z,58.59
2022-09-23T04:04:07.642Z,58.18
2022-09-23T04:06:37.481Z,58.53
2022-09-23T04:09:05.848Z,58.16
2022-09-23T04:11:34.432Z,58.23
2022-09-23T04:14:03.149Z,58.62
2022-09-23T04:16:31.680Z,58.31
2022-09-23T04:19:00.078Z,58.17
2022-09-23T04:21:31.359Z,58.13
2022-09-23T04:24:01.854Z,58.15
2022-09-23T04:26:30.641Z,58.51
2022-09-23T04:28:59.369Z,58.35
2022-09-23T04:31:28.783Z,58.13
2022-09-23T04:33:58.205Z,58.09
2022-09-23T04:36:27.206Z,58.28
2022-09-23T04:38:56.408Z,58.07
2022-09-23T04:41:26.290Z,58.08
2022-09-23T04:43:54.746Z,58.30
2022-09-23T04:46:23.239Z,58.28
2022-09-23T04:48:51.706Z,58.30
2022-09-23T04:51:21.684Z,58.49
2022-09-23T04:53:51.401Z,58.36
2022-09-23T04:56:22.287Z,58.38
2022-09-23T04:58:52.347Z,58.37
2022-09-23T05:01:25.229Z,58.79
2022-09-23T05:03:55.366Z,58.40
2022-09-23T05:06:23.786Z,58.61
2022-09-23T05:08:53.608Z,58.56
2022-09-23T05:11:22.604Z,58.51
2022-09-23T05:13:53.929Z,58.29
2022-09-23T05:16:24.046Z,58.73
2022-09-23T05:18:53.133Z,58.57
2022-09-23T05:21:23.205Z,58.48
2022-09-23T05:23:54.439Z,58.72
2022-09-23T05:26:24.195Z,58.40
2022-09-23T05:28:54.702Z,58.50
2022-09-23T05:31:24.497Z,58.63
2022-09-23T05:33:54.332Z,58.53
2022-09-23T05:36:23.146Z,58.69
2022-09-23T05:38:51.969Z,58.69
2022-09-23T05:41:23.006Z,58.45
2022-09-23T05:43:51.935Z,58.43
2022-09-23T05:46:23.954Z,58.49
2022-09-23T05:48:52.737Z,58.89
2022-09-23T05:51:30.657Z,58.33
2022-09-23T05:54:00.476Z,58.42
2022-09-23T05:56:29.410Z,58.45
2022-09-23T05:58:59.431Z,59.01
2022-09-23T06:01:32.243Z,58.78
2022-09-23T06:04:02.089Z,58.82
2022-09-23T06:06:31.756Z,58.64
2022-09-23T06:09:00.876Z,58.45
2022-09-23T06:11:31.391Z,58.62
2022-09-23T06:14:02.261Z,58.82
2022-09-23T06:16:34.171Z,58.87
2022-09-23T06:19:06.326Z,58.45
2022-09-23T06:21:36.472Z,58.59
2022-09-23T06:24:06.393Z,58.94
2022-09-23T06:26:35.530Z,58.64
2022-09-23T06:29:06.339Z,58.98
2022-09-23T06:31:36.179Z,58.79
2022-09-23T06:34:11.502Z,58.62
2022-09-23T06:36:46.613Z,58.70
2022-09-23T06:39:15.797Z,58.84
2022-09-23T06:41:45.171Z,58.58
2022-09-23T06:44:14.202Z,58.64
2022-09-23T06:46:44.212Z,58.73
2022-09-23T06:49:13.582Z,58.63
2022-09-23T06:51:42.686Z,58.70
2022-09-23T06:54:11.447Z,58.78
2022-09-23T06:56:40.282Z,58.89
2022-09-23T06:59:10.787Z,59.04
2022-09-23T07:01:39.439Z,58.85
2022-09-23T07:04:10.175Z,58.75
2022-09-23T07:06:38.693Z,58.67
2022-09-23T07:09:09.700Z,58.63
2022-09-23T07:11:39.413Z,58.52
2022-09-23T07:14:07.992Z,58.77
2022-09-23T07:16:36.558Z,58.58
2022-09-23T07:19:05.116Z,58.68
2022-09-23T07:21:35.170Z,58.72
2022-09-23T07:24:03.804Z,58.41
2022-09-23T07:26:34.076Z,58.62
2022-09-23T07:29:05.078Z,58.91
2022-09-23T07:31:39.314Z,58.66
2022-09-23T07:34:09.902Z,58.85
2022-09-23T07:36:41.453Z,58.57
2022-09-23T07:39:11.270Z,58.99
2022-09-23T07:41:41.572Z,58.76
2022-09-23T07:44:11.731Z,58.63
2022-09-23T07:46:40.436Z,58.67
2022-09-23T07:49:10.467Z,58.63
2022-09-23T07:51:42.848Z,58.78
2022-09-23T07:54:13.276Z,58.79
2022-09-23T07:56:42.318Z,58.79
2022-09-23T07:59:15.402Z,59.00
2022-09-23T08:01:46.295Z,58.84
2022-09-23T08:04:17.775Z,58.79
2022-09-23T08:06:49.246Z,58.69
2022-09-23T08:09:19.317Z,58.69
2022-09-23T08:11:48.508Z,59.02
2022-09-23T08:14:17.972Z,58.90
2022-09-23T08:16:47.081Z,58.21
2022-09-23T08:19:16.139Z,58.61
2022-09-23T08:21:46.675Z,58.45
2022-09-23T08:24:18.725Z,58.17
2022-09-23T08:26:48.231Z,58.22
2022-09-23T08:29:18.869Z,58.41
2022-09-23T08:31:47.822Z,58.59
2022-09-23T08:34:16.990Z,58.41
2022-09-23T08:36:45.741Z,58.34
2022-09-23T08:39:16.572Z,58.23
2022-09-23T08:41:49.329Z,57.99
2022-09-23T08:44:20.371Z,58.10
2022-09-23T08:46:51.035Z,58.71
2022-09-23T08:49:29.032Z,58.65
2022-09-23T08:51:58.217Z,58.27
2022-09-23T08:54:31.881Z,58.27
2022-09-23T08:57:01.643Z,58.37
2022-09-23T08:59:36.160Z,58.27
2022-09-23T09:02:10.432Z,58.15
2022-09-23T09:04:42.315Z,58.06
2022-09-23T09:10:11.867Z,58.42
2022-09-23T09:12:43.560Z,58.18
2022-09-23T09:15:14.605Z,58.02
2022-09-23T09:17:49.992Z,57.81
2022-09-23T09:20:23.701Z,58.11
2022-09-23T09:22:57.864Z,58.06
2022-09-23T09:25:40.268Z,57.88
2022-09-23T09:28:15.717Z,58.06
2022-09-23T09:30:48.504Z,57.75
2022-09-23T09:33:18.542Z,57.58
2022-09-23T09:35:58.873Z,57.48
2022-09-23T09:38:27.911Z,57.62
2022-09-23T09:41:03.217Z,57.40
2022-09-23T09:43:32.424Z,57.72
2022-09-23T09:46:08.391Z,57.64
2022-09-23T09:48:39.934Z,57.36
2022-09-23T09:51:19.698Z,57.75
2022-09-23T09:53:48.907Z,57.43
2022-09-23T09:56:19.373Z,57.38
2022-09-23T09:58:50.971Z,57.41
2022-09-23T10:01:21.226Z,57.58
2022-09-23T10:03:53.037Z,57.22
2022-09-23T10:06:25.935Z,57.51
2022-09-23T10:09:17.082Z,57.98
2022-09-23T10:12:04.335Z,57.23
2022-09-23T10:14:33.015Z,57.55
2022-09-23T10:17:06.273Z,57.62
2022-09-23T10:19:37.164Z,57.39
2022-09-23T10:22:10.993Z,57.27
2022-09-23T10:24:42.306Z,57.18
2022-09-23T10:27:12.793Z,57.86
2022-09-23T10:29:49.605Z,57.54
2022-09-23T10:32:26.725Z,57.69
2022-09-23T10:34:58.053Z,57.49
2022-09-23T10:37:36.080Z,57.49
2022-09-23T10:40:32.942Z,57.84
2022-09-23T10:43:40.127Z,57.46
2022-09-23T10:46:29.534Z,57.69
2022-09-23T10:49:40.491Z,57.46
2022-09-23T10:52:22.258Z,57.42
2022-09-23T10:54:59.444Z,57.44
2022-09-23T10:57:41.142Z,57.35
2022-09-23T11:00:23.112Z,57.24
2022-09-23T11:03:14.980Z,57.28
2022-09-23T11:05:47.598Z,57.25
2022-09-23T11:08:29.771Z,57.53
2022-09-23T11:11:06.684Z,57.50
2022-09-23T11:14:03.926Z,57.27
2022-09-23T11:16:43.592Z,57.26
2022-09-23T11:19:26.253Z,57.24
2022-09-23T11:22:02.297Z,56.91
2022-09-23T11:24:50.139Z,56.59
2022-09-23T11:27:27.955Z,56.54
2022-09-23T11:30:14.099Z,56.64
2022-09-23T11:35:42.628Z,56.74
2022-09-23T11:38:13.490Z,56.19
2022-09-23T11:40:44.047Z,56.50
2022-09-23T11:43:21.712Z,56.43
2022-09-23T11:45:56.510Z,56.44
2022-09-23T11:48:31.783Z,55.83
2022-09-23T11:51:02.424Z,56.25
2022-09-23T11:53:37.929Z,56.00
2022-09-23T11:56:10.228Z,56.01
2022-09-23T11:58:44.964Z,56.05
2022-09-23T12:01:33.366Z,56.09
2022-09-23T12:04:18.944Z,55.80
2022-09-23T12:06:52.357Z,56.40
2022-09-23T12:09:40.900Z,56.07
2022-09-23T12:12:16.368Z,56.32
2022-09-23T12:14:53.818Z,56.22
2022-09-23T12:17:35.589Z,55.81
2022-09-23T12:20:21.717Z,55.85
2022-09-23T12:22:59.517Z,55.70
2022-09-23T12:25:36.585Z,55.70
2022-09-23T12:28:07.355Z,55.77
2022-09-23T12:30:36.985Z,55.20
2022-09-23T12:33:10.198Z,55.75
2022-09-23T12:35:42.999Z,55.43
2022-09-23T12:38:16.065Z,55.48
2022-09-23T12:40:44.799Z,55.46
2022-09-23T12:43:18.593Z,54.73
2022-09-23T12:45:48.183Z,55.01
2022-09-23T12:49:00.411Z,55.01
2022-09-23T12:51:31.166Z,54.87
2022-09-23T12:54:16.039Z,55.01
2022-09-23T12:57:11.001Z,54.82
2022-09-23T12:59:57.606Z,54.86
2022-09-23T13:02:29.846Z,54.56
2022-09-23T13:05:21.137Z,54.71
2022-09-23T13:07:51.467Z,54.66
2022-09-23T13:10:28.021Z,54.59
2022-09-23T13:12:56.876Z,54.86
2022-09-23T13:15:31.581Z,54.63
2022-09-23T13:18:24.121Z,54.47
2022-09-23T13:20:53.335Z,54.62
2022-09-23T13:23:25.647Z,54.43
2022-09-23T13:25:55.573Z,54.40
2022-09-23T13:28:29.948Z,54.13
2022-09-23T13:30:58.516Z,54.72
2022-09-23T13:33:35.271Z,54.39
2022-09-23T13:36:06.721Z,54.50
2022-09-23T13:38:36.547Z,54.53
2022-09-23T13:41:08.413Z,54.55
2022-09-23T13:43:41.428Z,54.50
2022-09-23T13:46:14.051Z,54.36
2022-09-23T13:48:45.330Z,54.58
2022-09-23T13:51:24.536Z,54.55
2022-09-23T13:53:56.142Z,54.61
2022-09-23T13:56:25.660Z,54.72
2022-09-23T13:58:55.836Z,54.28
2022-09-23T14:01:31.879Z,54.56
2022-09-23T14:04:00.911Z,54.44
2022-09-23T14:06:31.053Z,54.50
2022-09-23T14:09:02.529Z,54.09
2022-09-23T14:11:33.695Z,54.27
2022-09-23T14:14:07.604Z,54.13
2022-09-23T14:16:39.026Z,54.41
2022-09-23T14:19:07.994Z,54.43
2022-09-23T14:21:37.782Z,54.35
2022-09-23T14:24:21.222Z,54.41
2022-09-23T14:26:51.534Z,54.13
2022-09-23T14:29:21.948Z,54.24
2022-09-23T14:31:57.650Z,54.24
2022-09-23T14:34:48.142Z,54.19
2022-09-23T14:37:40.875Z,54.05
2022-09-23T14:40:14.897Z,54.34
2022-09-23T14:42:45.003Z,54.28
2022-09-23T14:45:17.393Z,54.47
2022-09-23T14:47:48.700Z,54.41
2022-09-23T14:50:40.696Z,53.99
2022-09-23T14:53:38.433Z,54.25
2022-09-23T14:56:20.444Z,54.29
2022-09-23T14:58:53.157Z,54.40
2022-09-23T15:01:27.679Z,54.71
2022-09-23T15:03:57.642Z,54.39
2022-09-23T15:06:26.672Z,54.30
2022-09-23T15:08:56.577Z,54.55
2022-09-23T15:11:26.499Z,54.31
2022-09-23T15:13:54.929Z,54.66
2022-09-23T15:16:26.887Z,54.60
2022-09-23T15:18:57.376Z,54.50
2022-09-23T15:21:26.695Z,54.43
2022-09-23T15:23:58.636Z,54.42
2022-09-23T15:26:49.562Z,54.56
2022-09-23T15:29:19.074Z,54.42
2022-09-23T15:31:47.777Z,54.37
2022-09-23T15:34:16.207Z,54.68
2022-09-23T15:36:44.729Z,54.40
2022-09-23T15:39:13.686Z,54.35
2022-09-23T15:41:43.962Z,54.30
2022-09-23T15:44:13.851Z,54.66
2022-09-23T15:46:45.888Z,54.40
2022-09-23T15:49:23.273Z,54.48
2022-09-23T15:51:52.035Z,54.50
2022-09-23T15:54:20.448Z,54.50
2022-09-23T15:56:50.266Z,54.52
2022-09-23T15:59:19.163Z,54.53
2022-09-23T16:01:47.593Z,54.25
2022-09-23T16:04:16.697Z,54.40
2022-09-23T16:06:48.572Z,54.16
2022-09-23T16:09:17.006Z,54.37
2022-09-23T16:11:47.112Z,54.65
2022-09-23T16:14:20.697Z,54.50
2022-09-23T16:16:49.118Z,54.67
2022-09-23T16:19:17.790Z,54.97
2022-09-23T16:21:46.222Z,54.85
2022-09-23T16:24:19.139Z,54.80
2022-09-23T16:26:48.657Z,54.48
2022-09-23T16:29:18.432Z,55.06
2022-09-23T16:31:46.891Z,55.06
2022-09-23T16:34:15.526Z,54.90
2022-09-23T16:36:44.607Z,54.95
2022-09-23T16:39:14.438Z,54.77
2022-09-23T16:41:43.490Z,55.00
2022-09-23T16:44:12.617Z,55.32
2022-09-23T16:46:43.257Z,55.26
2022-09-23T16:49:12.479Z,55.08
2022-09-23T16:51:41.298Z,54.84
2022-09-23T16:54:11.386Z,55.06
2022-09-23T16:56:44.322Z,55.04
2022-09-23T16:59:13.570Z,55.07
2022-09-23T17:02:01.489Z,55.12
2022-09-23T17:04:30.080Z,54.99
2022-09-23T17:06:59.173Z,55.03
2022-09-23T17:09:29.256Z,55.12
2022-09-23T17:12:04.288Z,55.04
2022-09-23T17:14:33.786Z,55.32
2022-09-23T17:17:03.734Z,55.24
2022-09-23T17:19:33.857Z,55.11
2022-09-23T17:22:02.301Z,55.21
2022-09-23T17:24:30.739Z,55.34
2022-09-23T17:26:59.195Z,55.51
2022-09-23T17:29:29.112Z,55.27
2022-09-23T17:31:58.057Z,55.61
2022-09-23T17:34:28.908Z,55.71
2022-09-23T17:36:57.348Z,55.71
2022-09-23T17:39:25.840Z,56.19
2022-09-23T17:41:56.083Z,55.82
2022-09-23T17:44:24.757Z,55.46
2022-09-23T17:46:53.414Z,55.59
2022-09-23T17:49:24.232Z,55.65
2022-09-23T17:51:54.136Z,55.62
2022-09-23T17:54:22.954Z,55.61
2022-09-23T17:56:51.436Z,55.92
2022-09-23T17:59:20.047Z,55.66
2022-09-23T18:01:48.523Z,55.86
2022-09-23T18:04:17.526Z,55.73
2022-09-23T18:06:47.261Z,55.85
2022-09-23T18:09:18.209Z,55.88
2022-09-23T18:11:49.344Z,55.86
2022-09-23T18:14:19.494Z,56.04
2022-09-23T18:16:49.567Z,55.84
2022-09-23T18:19:19.305Z,56.10
2022-09-23T18:21:50.382Z,55.81
2022-09-23T18:24:35.721Z,55.97
2022-09-23T18:27:06.402Z,55.81
2022-09-23T18:29:35.360Z,55.72
2022-09-23T18:32:04.218Z,56.07
2022-09-23T18:34:33.130Z,55.79
2022-09-23T18:37:01.594Z,55.83
2022-09-23T18:39:31.485Z,56.01
2022-09-23T18:42:02.611Z,55.89
2022-09-23T18:44:31.552Z,55.73
2022-09-23T18:47:00.064Z,56.21
2022-09-23T18:49:45.888Z,55.99
2022-09-23T18:52:15.885Z,56.08
2022-09-23T18:54:45.908Z,56.12
2022-09-23T18:57:14.998Z,56.01
2022-09-23T18:59:47.273Z,56.03
2022-09-23T19:02:16.959Z,56.21
2022-09-23T19:04:45.359Z,56.16
2022-09-23T19:07:14.113Z,56.14
2022-09-23T19:09:42.562Z,56.16
2022-09-23T19:12:12.365Z,56.14
2022-09-23T19:14:43.686Z,56.10
2022-09-23T19:17:12.149Z,56.17
2022-09-23T19:19:40.970Z,56.21
2022-09-23T19:22:09.517Z,56.06
2022-09-23T19:24:38.084Z,56.01
2022-09-23T19:27:17.317Z,56.09
2022-09-23T19:29:47.432Z,56.26
2022-09-23T19:32:16.346Z,56.36
2022-09-23T19:34:46.493Z,56.36
2022-09-23T19:37:16.518Z,55.89
2022-09-23T19:39:45.831Z,56.09
2022-09-23T19:42:15.816Z,56.13
2022-09-23T19:44:44.299Z,55.96
2022-09-23T19:47:15.630Z,55.93
2022-09-23T19:49:44.265Z,56.02
2022-09-23T19:52:12.957Z,56.34
2022-09-23T19:54:42.600Z,56.05
2022-09-23T19:57:14.641Z,56.22
2022-09-23T19:59:44.988Z,56.19
2022-09-23T20:02:14.197Z,56.35
2022-09-23T20:04:42.614Z,56.03
2022-09-23T20:07:11.469Z,56.21
2022-09-23T20:09:40.024Z,56.21
2022-09-23T20:12:08.556Z,56.18
2022-09-23T20:14:36.984Z,56.06
2022-09-23T20:17:07.688Z,56.21
2022-09-23T20:19:36.229Z,56.23
2022-09-23T20:22:22.466Z,56.39
2022-09-23T20:24:51.002Z,56.05
2022-09-23T20:27:18.843Z,56.42
2022-09-23T20:29:48.415Z,56.12
2022-09-23T20:32:18.653Z,56.12
2022-09-23T20:34:48.774Z,56.06
2022-09-23T20:37:18.074Z,56.19
2022-09-23T20:39:48.502Z,56.23
2022-09-23T20:42:17.752Z,56.03
2022-09-23T20:44:46.434Z,56.15
2022-09-23T20:47:16.935Z,55.93
2022-09-23T20:49:48.895Z,56.25
2022-09-23T20:52:22.402Z,56.13
2022-09-23T20:54:53.052Z,56.10
2022-09-23T20:57:21.517Z,55.99
2022-09-23T20:59:49.978Z,56.18
2022-09-23T21:02:18.612Z,56.21
2022-09-23T21:04:48.537Z,56.06
2022-09-23T21:07:17.084Z,56.07
2022-09-23T21:09:45.526Z,56.36
2022-09-23T21:12:13.908Z,55.94
2022-09-23T21:14:42.305Z,56.04
2022-09-23T21:17:10.725Z,56.11
2022-09-23T21:19:39.170Z,56.05
2022-09-23T21:22:09.912Z,56.29
2022-09-23T21:25:16.141Z,56.14
2022-09-23T21:27:27.115Z,56.12
2022-09-23T21:29:55.530Z,56.20
2022-09-23T21:32:24.574Z,56.25
2022-09-23T21:34:54.059Z,56.18
2022-09-23T21:37:23.888Z,56.35
2022-09-23T21:40:06.397Z,56.35
2022-09-23T21:42:36.057Z,56.49
2022-09-23T21:45:06.416Z,56.43
2022-09-23T21:47:35.255Z,56.14
2022-09-23T21:50:04.320Z,56.23
2022-09-23T21:52:34.200Z,56.15
2022-09-23T21:55:02.679Z,56.48
2022-09-23T21:57:31.612Z,56.44
2022-09-23T22:00:00.069Z,56.27
2022-09-23T22:02:28.571Z,56.33
2022-09-23T22:04:57.233Z,56.27
2022-09-23T22:07:25.704Z,56.62
2022-09-23T22:09:55.575Z,56.37
2022-09-23T22:12:24.139Z,56.52
2022-09-23T22:14:52.522Z,56.54
2022-09-23T22:17:21.303Z,56.46
2022-09-23T22:19:50.913Z,56.59
2022-09-23T22:22:19.546Z,56.18
2022-09-23T22:24:48.496Z,56.74
2022-09-23T22:27:20.409Z,56.66
2022-09-23T22:30:06.582Z,56.50
2022-09-23T22:32:46.221Z,56.59
2022-09-23T22:35:16.601Z,56.63
2022-09-23T22:37:45.493Z,56.74
2022-09-23T22:40:15.328Z,56.51
2022-09-23T22:42:45.778Z,56.46
2022-09-23T22:45:14.459Z,56.63
2022-09-23T22:47:45.066Z,56.86
2022-09-23T22:50:14.925Z,56.29
2022-09-23T22:52:43.669Z,56.35
2022-09-23T22:55:12.641Z,56.86
2022-09-23T22:57:41.193Z,56.61
2022-09-23T23:00:13.116Z,56.67
2022-09-23T23:02:42.316Z,56.40
2022-09-23T23:05:11.540Z,56.48
2022-09-23T23:07:40.494Z,56.66
2022-09-23T23:10:10.421Z,56.69
2022-09-23T23:12:39.078Z,56.58
2022-09-23T23:15:09.341Z,56.47
2022-09-23T23:17:40.468Z,56.71
2022-09-23T23:20:09.621Z,56.57
2022-09-23T23:22:38.070Z,56.24
2022-09-23T23:25:07.544Z,56.48
2022-09-23T23:27:36.469Z,56.50
2022-09-23T23:30:05.693Z,56.42
2022-09-23T23:32:34.218Z,57.01
2022-09-23T23:35:04.333Z,56.85
2022-09-23T23:37:32.758Z,56.50
2022-09-23T23:40:01.253Z,56.78
2022-09-23T23:42:31.351Z,56.87
2022-09-23T23:44:59.928Z,56.77
2022-09-23T23:47:28.352Z,56.84
2022-09-23T23:49:57.097Z,56.86
2022-09-23T23:52:26.992Z,56.99
2022-09-23T23:54:55.486Z,56.36
2022-09-23T23:57:23.917Z,56.88
2022-09-23T23:59:52.339Z,56.89
